Time;durP1;ratioP1;P1;durP2;ratioP2;P2;SDS_P1;SDS_P2;PMS_P1;PMS_P2;Temp;Humidity;BMP_temperature;BMP_pressure;BME280_temperature;BME280_humidity;BME280_pressure;Samples;Min_cycle;Max_cycle;Signal;HPM_P1;HPM_P2
2023/03/12 00:01:28;;;;;;;11.20;6.70;;;;;;;-2.24;80.91;99493.59;103632;280;39657;-73
2023/03/12 00:04:04;;;;;;;10.80;6.50;;;;;;;-2.27;81.00;99497.02;103682;280;38895;-73
2023/03/12 00:06:38;;;;;;;9.90;6.50;;;;;;;-2.31;81.02;99499.23;103647;269;38580;-71
2023/03/12 00:09:12;;;;;;;8.50;5.40;;;;;;;-2.32;81.21;99495.14;103688;280;38862;-71
2023/03/12 00:11:46;;;;;;;9.30;6.10;;;;;;;-2.31;81.22;99494.10;103666;280;38478;-73
2023/03/12 00:14:21;;;;;;;9.50;6.10;;;;;;;-2.32;81.22;99495.64;103508;280;39446;-71
2023/03/12 00:16:55;;;;;;;8.30;5.90;;;;;;;-2.34;81.35;99490.17;103636;280;39453;-71
2023/03/12 00:19:29;;;;;;;10.70;6.90;;;;;;;-2.34;81.52;99493.77;103697;280;38618;-74
2023/03/12 00:22:03;;;;;;;8.10;5.80;;;;;;;-2.35;81.55;99488.46;103636;268;38388;-72
2023/03/12 00:24:37;;;;;;;9.40;5.90;;;;;;;-2.38;81.62;99483.00;103660;280;38301;-70
2023/03/12 00:27:11;;;;;;;9.10;6.00;;;;;;;-2.39;81.58;99481.64;103642;284;38286;-69
2023/03/12 00:29:45;;;;;;;9.60;7.30;;;;;;;-2.39;81.79;99482.33;103695;280;38987;-70
2023/03/12 00:32:19;;;;;;;11.00;7.00;;;;;;;-2.39;81.95;99479.59;103660;280;40137;-72
2023/03/12 00:34:56;;;;;;;9.50;6.80;;;;;;;-2.38;82.09;99475.32;103671;280;38231;-71
2023/03/12 00:37:31;;;;;;;11.70;7.10;;;;;;;-2.38;82.11;99468.14;103655;280;38378;-72
2023/03/12 00:40:09;;;;;;;10.90;7.40;;;;;;;-2.41;82.33;99467.13;103676;280;38503;-72
2023/03/12 00:42:46;;;;;;;10.00;7.30;;;;;;;-2.43;82.44;99463.88;103697;280;38502;-70
2023/03/12 00:45:20;;;;;;;12.80;7.30;;;;;;;-2.42;82.57;99468.83;103666;280;38606;-73
2023/03/12 00:47:54;;;;;;;12.00;7.90;;;;;;;-2.40;82.85;99467.47;103059;280;935058;-72
2023/03/12 00:50:29;;;;;;;13.80;8.20;;;;;;;-2.37;82.88;99468.31;103623;280;38377;-73
2023/03/12 00:53:03;;;;;;;13.10;8.30;;;;;;;-2.36;82.86;99464.56;103672;280;38860;-71
2023/03/12 00:55:37;;;;;;;14.40;8.80;;;;;;;-2.38;83.03;99468.32;103684;280;38472;-73
2023/03/12 00:58:11;;;;;;;15.40;9.00;;;;;;;-2.39;83.16;99462.86;103709;280;38287;-72
2023/03/12 01:00:45;;;;;;;13.00;8.60;;;;;;;-2.38;83.36;99464.04;103665;280;38315;-72
2023/03/12 01:03:19;;;;;;;12.00;8.50;;;;;;;-2.33;83.50;99457.21;103711;280;40595;-72
2023/03/12 01:05:54;;;;;;;11.50;7.70;;;;;;;-2.23;83.89;99453.27;103664;280;38314;-73
2023/03/12 01:08:28;;;;;;;12.60;8.40;;;;;;;-2.13;84.18;99451.89;103645;280;38708;-70
2023/03/12 01:11:02;;;;;;;14.20;8.60;;;;;;;-2.02;84.17;99447.61;103655;280;38276;-72
2023/03/12 01:13:36;;;;;;;14.90;9.60;;;;;;;-1.93;84.25;99448.95;103544;280;38502;-72
2023/03/12 01:16:13;;;;;;;13.80;9.00;;;;;;;-1.87;84.36;99449.62;103620;280;39988;-72
2023/03/12 01:18:47;;;;;;;15.00;9.60;;;;;;;-1.82;84.35;99443.46;103533;281;38298;-73
2023/03/12 01:21:21;;;;;;;16.00;9.90;;;;;;;-1.77;84.28;99436.42;103664;280;38299;-71
2023/03/12 01:23:55;;;;;;;12.50;9.40;;;;;;;-1.71;84.23;99437.27;103699;280;38522;-73
2023/03/12 01:26:29;;;;;;;16.80;9.70;;;;;;;-1.66;84.16;99433.14;103670;280;38355;-73
2023/03/12 01:29:03;;;;;;;13.70;9.00;;;;;;;-1.61;84.15;99427.65;103657;280;38662;-72
2023/03/12 01:31:38;;;;;;;14.50;10.20;;;;;;;-1.57;84.26;99431.23;103689;280;38379;-73
2023/03/12 01:34:13;;;;;;;15.30;10.00;;;;;;;-1.51;84.27;99428.81;103650;280;38562;-72
2023/03/12 01:36:47;;;;;;;15.50;10.00;;;;;;;-1.50;84.16;99420.42;103477;280;41990;-69
2023/03/12 01:39:21;;;;;;;15.70;9.50;;;;;;;-1.47;84.25;99413.40;103684;280;39793;-69
2023/03/12 01:41:55;;;;;;;12.70;9.40;;;;;;;-1.41;84.16;99416.44;103654;280;38538;-72
2023/03/12 01:44:29;;;;;;;14.10;9.20;;;;;;;-1.33;84.17;99407.50;103646;280;38469;-71
2023/03/12 01:47:03;;;;;;;12.80;9.30;;;;;;;-1.26;84.25;99406.95;103555;280;190418;-72
2023/03/12 01:49:37;;;;;;;13.00;9.70;;;;;;;-1.19;84.20;99406.90;103656;280;39486;-70
2023/03/12 01:52:12;;;;;;;17.50;9.60;;;;;;;-1.15;84.02;99409.45;103624;280;38875;-70
2023/03/12 01:54:50;;;;;;;12.90;9.90;;;;;;;-1.12;83.92;99414.23;103642;280;39691;-71
2023/03/12 01:57:25;;;;;;;15.40;9.70;;;;;;;-1.10;83.90;99409.92;103627;280;38291;-72
2023/03/12 02:00:03;;;;;;;13.30;9.10;;;;;;;-1.07;83.82;99408.04;103660;280;39445;-73
2023/03/12 02:02:37;;;;;;;14.30;8.80;;;;;;;-1.02;83.73;99409.20;103649;280;38268;-71
2023/03/12 02:05:13;;;;;;;13.40;9.20;;;;;;;-0.97;83.66;99409.85;103655;280;38620;-72
2023/03/12 02:07:49;;;;;;;13.90;9.60;;;;;;;-0.93;83.79;99419.08;103500;280;38412;-72
2023/03/12 02:10:23;;;;;;;15.30;9.90;;;;;;;-0.91;83.58;99408.95;103658;280;39978;-70
2023/03/12 02:12:57;;;;;;;14.30;9.70;;;;;;;-0.90;83.59;99410.64;103669;280;39971;-72
2023/03/12 02:15:31;;;;;;;13.60;9.00;;;;;;;-0.88;83.37;99417.16;103659;280;38233;-72
2023/03/12 02:18:05;;;;;;;13.00;9.00;;;;;;;-0.87;83.26;99422.45;103652;280;38259;-71
2023/03/12 02:20:42;;;;;;;14.30;9.40;;;;;;;-0.86;83.20;99415.59;103619;280;38366;-69
2023/03/12 02:23:19;;;;;;;15.00;9.20;;;;;;;-0.88;83.09;99415.77;103677;280;38306;-72
2023/03/12 02:25:53;;;;;;;13.80;8.90;;;;;;;-0.88;83.03;99425.71;103635;280;38480;-71
2023/03/12 02:28:29;;;;;;;13.70;9.30;;;;;;;-0.90;83.18;99425.05;103651;280;39677;-72
2023/03/12 02:31:06;;;;;;;12.50;9.00;;;;;;;-0.95;83.05;99426.95;103428;280;176191;-71
2023/03/12 02:33:40;;;;;;;12.10;8.50;;;;;;;-0.98;83.08;99425.27;103621;280;38276;-72
2023/03/12 02:36:13;;;;;;;12.10;7.90;;;;;;;-1.00;83.00;99425.45;103666;269;38450;-70
2023/03/12 02:38:50;;;;;;;15.90;8.30;;;;;;;-1.00;83.24;99422.55;103644;280;38258;-71
2023/03/12 02:41:26;;;;;;;9.50;7.20;;;;;;;-1.01;83.13;99419.80;103654;280;38604;-72
2023/03/12 02:44:05;;;;;;;12.50;8.40;;;;;;;-1.04;83.13;99422.73;103696;280;38265;-72
2023/03/12 02:46:40;;;;;;;14.30;8.10;;;;;;;-1.08;83.25;99424.64;103643;280;38394;-72
2023/03/12 02:49:14;;;;;;;12.40;8.60;;;;;;;-1.10;83.26;99425.67;103672;280;38274;-71
2023/03/12 02:51:49;;;;;;;10.50;7.50;;;;;;;-1.10;83.53;99425.32;103692;280;40007;-69
2023/03/12 02:54:23;;;;;;;10.20;7.40;;;;;;;-1.06;83.60;99421.55;103689;280;38397;-72
2023/03/12 02:56:57;;;;;;;13.60;6.90;;;;;;;-1.00;83.59;99427.16;103644;280;38839;-71
2023/03/12 02:59:31;;;;;;;10.50;7.60;;;;;;;-0.93;83.73;99439.45;103638;280;38833;-70
2023/03/12 03:02:05;;;;;;;9.40;7.40;;;;;;;-0.88;83.78;99434.10;103671;280;39522;-72
2023/03/12 03:04:39;;;;;;;10.90;7.20;;;;;;;-0.84;83.80;99431.49;103667;280;39968;-72
2023/03/12 03:07:14;;;;;;;11.30;8.20;;;;;;;-0.83;83.66;99430.98;103654;280;38844;-72
2023/03/12 03:09:48;;;;;;;10.70;7.00;;;;;;;-0.82;83.57;99429.44;103671;280;38807;-70
2023/03/12 03:12:22;;;;;;;10.30;7.20;;;;;;;-0.79;83.33;99437.46;103647;280;38807;-72
2023/03/12 03:14:57;;;;;;;12.10;6.70;;;;;;;-0.77;83.28;99441.56;103665;279;38269;-71
2023/03/12 03:17:32;;;;;;;10.00;6.80;;;;;;;-0.74;83.29;99447.17;103708;279;38248;-71
2023/03/12 03:20:09;;;;;;;11.10;7.10;;;;;;;-0.70;83.37;99451.60;103742;279;38515;-70
2023/03/12 03:22:44;;;;;;;13.20;7.60;;;;;;;-0.66;83.25;99455.17;103683;279;39813;-72
2023/03/12 03:25:21;;;;;;;11.60;6.50;;;;;;;-0.63;83.37;99460.48;103762;267;38379;-72
2023/03/12 03:27:57;;;;;;;9.90;7.10;;;;;;;-0.60;83.25;99465.92;103724;279;39412;-69
2023/03/12 03:30:32;;;;;;;9.40;6.20;;;;;;;-0.56;83.15;99457.33;103710;279;38421;-69
2023/03/12 03:33:06;;;;;;;10.60;6.10;;;;;;;-0.50;83.16;99461.39;103736;279;38573;-71
2023/03/12 03:35:40;;;;;;;8.20;5.90;;;;;;;-0.44;83.10;99461.00;103691;279;39711;-71
2023/03/12 03:38:14;;;;;;;8.90;5.90;;;;;;;-0.41;82.99;99466.45;103703;279;38247;-70
2023/03/12 03:40:48;;;;;;;8.30;6.00;;;;;;;-0.38;82.92;99467.81;103590;279;176075;-72
2023/03/12 03:43:22;;;;;;;10.40;6.50;;;;;;;-0.36;82.85;99469.16;103727;279;38805;-72
2023/03/12 03:46:02;;;;;;;12.70;6.50;;;;;;;-0.35;82.63;99476.17;103696;279;38678;-70
2023/03/12 03:48:36;;;;;;;7.30;5.70;;;;;;;-0.32;82.56;99477.02;103728;279;38879;-72
2023/03/12 03:51:11;;;;;;;8.90;5.70;;;;;;;-0.31;82.36;99472.88;103690;279;38337;-70
2023/03/12 03:53:44;;;;;;;8.80;5.60;;;;;;;-0.27;82.37;99481.95;103772;279;38787;-69
2023/03/12 03:56:19;;;;;;;9.30;5.80;;;;;;;-0.23;82.24;99481.91;103722;279;39680;-70
2023/03/12 03:58:53;;;;;;;8.10;5.60;;;;;;;-0.20;82.15;99482.39;103710;279;39418;-72
2023/03/12 04:01:26;;;;;;;8.60;6.80;;;;;;;-0.18;82.12;99486.84;103761;279;38528;-72
2023/03/12 04:04:00;;;;;;;11.70;6.70;;;;;;;-0.17;81.87;99490.94;103721;279;38267;-70
2023/03/12 04:06:34;;;;;;;8.60;6.00;;;;;;;-0.18;81.74;99491.30;103702;279;38341;-72
2023/03/12 04:09:13;;;;;;;9.30;5.80;;;;;;;-0.19;81.71;99490.27;103713;279;38364;-73
2023/03/12 04:11:47;;;;;;;7.80;5.50;;;;;;;-0.17;81.61;99493.34;103739;279;39676;-73
2023/03/12 04:14:21;;;;;;;9.90;5.80;;;;;;;-0.13;81.66;99496.57;103725;279;38408;-73
2023/03/12 04:16:55;;;;;;;8.00;6.10;;;;;;;-0.10;81.67;99503.73;103716;279;39425;-70
2023/03/12 04:19:30;;;;;;;7.70;5.60;;;;;;;-0.05;81.66;99502.66;103594;291;39929;-72
2023/03/12 04:22:04;;;;;;;12.40;6.30;;;;;;;-0.05;81.57;99498.55;103730;279;39448;-69
2023/03/12 04:24:38;;;;;;;7.80;5.70;;;;;;;-0.07;81.39;99494.45;103706;279;39414;-73
2023/03/12 04:27:13;;;;;;;8.40;5.70;;;;;;;-0.07;81.43;99502.33;103699;279;38487;-74
2023/03/12 04:29:47;;;;;;;9.50;5.60;;;;;;;-0.06;81.40;99500.10;103684;280;39452;-72
2023/03/12 04:32:21;;;;;;;5.80;4.40;;;;;;;-0.05;81.43;99497.35;103709;280;38394;-72
2023/03/12 04:34:55;;;;;;;6.50;4.60;;;;;;;-0.03;81.37;99498.35;103736;279;38267;-72
2023/03/12 04:37:30;;;;;;;7.60;5.20;;;;;;;0.00;81.26;99493.52;103678;279;38599;-70
2023/03/12 04:40:07;;;;;;;8.50;5.70;;;;;;;0.04;81.48;99492.63;103672;279;40150;-72
2023/03/12 04:42:42;;;;;;;8.00;5.80;;;;;;;0.06;81.25;99494.52;103699;279;38391;-73
2023/03/12 04:45:17;;;;;;;7.40;5.70;;;;;;;0.05;81.19;99493.47;103720;279;38560;-71
2023/03/12 04:47:51;;;;;;;7.60;5.60;;;;;;;0.05;81.23;99493.48;103701;279;39419;-72
2023/03/12 04:50:25;;;;;;;7.80;4.50;;;;;;;0.05;81.14;99488.34;103723;279;38894;-71
2023/03/12 04:52:59;;;;;;;7.50;4.40;;;;;;;0.06;80.98;99487.82;103717;279;39726;-73
2023/03/12 04:55:33;;;;;;;9.50;4.60;;;;;;;0.08;81.10;99494.64;103699;279;39683;-70
2023/03/12 04:58:07;;;;;;;7.40;4.70;;;;;;;0.11;81.13;99496.35;103732;279;38540;-73
2023/03/12 05:00:42;;;;;;;9.60;5.60;;;;;;;0.13;81.27;99492.55;103697;279;39330;-73
2023/03/12 05:03:16;;;;;;;8.50;5.60;;;;;;;0.15;81.08;99491.84;103705;279;38522;-73
2023/03/12 05:05:50;;;;;;;8.00;4.90;;;;;;;0.15;81.12;99494.59;103661;280;38895;-73
2023/03/12 05:08:24;;;;;;;7.40;4.60;;;;;;;0.15;81.09;99493.91;103588;280;38916;-73
2023/03/12 05:10:58;;;;;;;7.00;4.80;;;;;;;0.15;81.14;99500.41;103702;279;40651;-73
2023/03/12 05:13:32;;;;;;;6.60;4.20;;;;;;;0.17;81.23;99501.42;103710;279;38273;-72
2023/03/12 05:16:07;;;;;;;5.20;4.10;;;;;;;0.20;81.32;99497.28;103694;279;39412;-72
2023/03/12 05:18:41;;;;;;;7.20;4.60;;;;;;;0.21;81.06;99494.36;103722;279;38534;-70
2023/03/12 05:21:16;;;;;;;8.80;5.10;;;;;;;0.22;81.09;99491.77;103657;279;39966;-70
2023/03/12 05:23:50;;;;;;;7.10;4.80;;;;;;;0.23;81.12;99495.88;103735;279;39052;-70
2023/03/12 05:26:26;;;;;;;7.30;4.70;;;;;;;0.21;81.10;99497.45;103650;279;38260;-70
2023/03/12 05:29:00;;;;;;;6.10;4.70;;;;;;;0.23;81.23;99495.86;103705;279;38325;-72
2023/03/12 05:31:35;;;;;;;5.50;4.40;;;;;;;0.27;81.18;99503.73;103710;279;38992;-72
2023/03/12 05:34:10;;;;;;;9.10;4.50;;;;;;;0.30;81.18;99507.98;103752;279;39399;-72
2023/03/12 05:36:44;;;;;;;8.30;5.40;;;;;;;0.34;81.19;99509.31;103710;279;38240;-72
2023/03/12 05:39:18;;;;;;;7.10;4.90;;;;;;;0.39;81.32;99511.31;103754;279;38481;-71
2023/03/12 05:41:52;;;;;;;7.80;5.10;;;;;;;0.41;81.24;99514.90;103703;279;38675;-72
2023/03/12 05:44:26;;;;;;;8.10;4.90;;;;;;;0.40;81.01;99515.25;103717;279;38249;-70
2023/03/12 05:47:01;;;;;;;7.70;4.80;;;;;;;0.38;81.00;99512.36;103656;267;38323;-72
2023/03/12 05:49:35;;;;;;;6.80;4.40;;;;;;;0.38;81.01;99511.66;103632;279;38772;-72
2023/03/12 05:52:09;;;;;;;7.10;4.00;;;;;;;0.40;81.01;99514.75;103676;279;38259;-72
2023/03/12 05:54:43;;;;;;;7.30;4.00;;;;;;;0.44;80.97;99522.42;103652;278;40017;-72
2023/03/12 05:57:17;;;;;;;6.90;4.50;;;;;;;0.48;80.98;99519.45;103192;279;647655;-72
2023/03/12 05:59:51;;;;;;;8.40;5.70;;;;;;;0.53;81.02;99531.92;103659;279;39678;-69
2023/03/12 06:02:25;;;;;;;10.90;6.30;;;;;;;0.57;80.79;99533.79;103677;279;38492;-70
2023/03/12 06:04:59;;;;;;;10.70;6.40;;;;;;;0.59;80.76;99540.29;103679;279;39397;-73
2023/03/12 06:07:33;;;;;;;8.60;5.80;;;;;;;0.59;80.64;99546.80;103541;279;173209;-71
2023/03/12 06:10:09;;;;;;;5.40;3.90;;;;;;;0.60;80.46;99548.34;103705;279;38419;-72
2023/03/12 06:12:46;;;;;;;6.30;3.90;;;;;;;0.62;80.34;99548.31;103677;279;38340;-72
2023/03/12 06:15:20;;;;;;;5.40;4.20;;;;;;;0.64;80.12;99556.54;103016;279;915111;-72
2023/03/12 06:17:54;;;;;;;6.00;4.00;;;;;;;0.66;80.15;99552.91;103675;279;39510;-71
2023/03/12 06:20:28;;;;;;;7.50;4.60;;;;;;;0.68;80.04;99549.95;103496;279;175875;-70
2023/03/12 06:23:02;;;;;;;6.10;4.20;;;;;;;0.73;80.18;99545.45;103699;279;39660;-70
2023/03/12 06:25:36;;;;;;;5.60;3.80;;;;;;;0.83;80.30;99546.19;103665;279;38561;-72
2023/03/12 06:28:10;;;;;;;4.70;3.40;;;;;;;0.96;80.11;99553.07;103670;279;38220;-72
2023/03/12 06:30:44;;;;;;;6.70;3.80;;;;;;;1.09;79.92;99559.78;103663;279;38357;-73
2023/03/12 06:33:18;;;;;;;7.40;4.00;;;;;;;1.18;79.50;99561.90;103695;279;38648;-72
2023/03/12 06:35:55;;;;;;;5.50;3.70;;;;;;;1.25;79.05;99566.11;103627;279;40158;-72
2023/03/12 06:38:31;;;;;;;7.80;3.20;;;;;;;1.27;78.48;99565.20;103702;279;38399;-73
2023/03/12 06:41:06;;;;;;;6.50;3.40;;;;;;;1.23;78.04;99576.44;103725;279;38632;-72
2023/03/12 06:43:40;;;;;;;7.10;3.20;;;;;;;1.17;77.54;99585.63;103730;279;38232;-72
2023/03/12 06:46:16;;;;;;;5.60;3.10;;;;;;;1.11;77.69;99582.08;103682;279;38864;-72
2023/03/12 06:48:50;;;;;;;5.00;3.10;;;;;;;1.12;77.81;99590.13;103713;279;38483;-71
2023/03/12 06:51:24;;;;;;;6.40;2.80;;;;;;;1.15;77.34;99587.37;103688;279;38616;-73
2023/03/12 06:54:01;;;;;;;4.50;2.60;;;;;;;1.21;77.60;99586.08;103728;279;38262;-72
2023/03/12 06:56:35;;;;;;;4.40;2.80;;;;;;;1.24;77.16;99599.45;103716;279;38233;-69
2023/03/12 06:59:09;;;;;;;5.30;2.80;;;;;;;1.23;77.07;99600.84;103748;279;38606;-72
2023/03/12 07:01:43;;;;;;;4.30;3.00;;;;;;;1.27;77.13;99604.56;103693;268;38793;-70
2023/03/12 07:04:17;;;;;;;5.70;3.10;;;;;;;1.37;77.01;99601.87;103737;279;39531;-73
2023/03/12 07:06:52;;;;;;;5.70;3.20;;;;;;;1.48;77.29;99602.73;103738;279;38272;-73
2023/03/12 07:09:27;;;;;;;5.40;3.10;;;;;;;1.73;77.45;99601.89;103757;279;39413;-73
2023/03/12 07:12:03;;;;;;;3.60;2.80;;;;;;;1.80;76.31;99608.81;103686;278;38355;-73
2023/03/12 07:14:37;;;;;;;4.50;2.70;;;;;;;2.01;77.52;99614.17;103696;279;39030;-72
2023/03/12 07:17:12;;;;;;;4.20;2.20;;;;;;;2.59;78.03;99611.50;103736;279;39608;-73
2023/03/12 07:19:49;;;;;;;4.20;2.30;;;;;;;3.31;77.35;99609.61;103721;279;38948;-71
2023/03/12 07:22:23;;;;;;;4.50;2.30;;;;;;;3.47;75.42;99608.58;103655;268;39385;-73
2023/03/12 07:24:58;;;;;;;4.40;2.70;;;;;;;3.50;72.66;99611.80;103757;279;38480;-72
2023/03/12 07:27:32;;;;;;;4.60;2.70;;;;;;;3.79;72.82;99607.54;103754;279;38238;-74
2023/03/12 07:30:08;;;;;;;4.80;2.80;;;;;;;4.13;72.17;99609.85;103739;267;38395;-75
2023/03/12 07:32:45;;;;;;;5.00;2.10;;;;;;;4.50;70.93;99615.14;103752;279;38435;-74
2023/03/12 07:35:19;;;;;;;5.10;2.20;;;;;;;4.94;70.17;99610.70;103717;279;38281;-74
2023/03/12 07:37:54;;;;;;;3.40;2.10;;;;;;;5.22;68.48;99612.70;103761;279;39408;-73
2023/03/12 07:40:29;;;;;;;2.60;2.00;;;;;;;5.70;69.67;99619.77;103641;279;38371;-73
2023/03/12 07:43:04;;;;;;;2.60;2.00;;;;;;;5.98;67.28;99630.72;103688;279;38481;-74
2023/03/12 07:45:39;;;;;;;3.90;2.30;;;;;;;6.21;66.27;99634.17;103659;279;38339;-73
2023/03/12 07:48:13;;;;;;;3.90;2.50;;;;;;;6.18;64.26;99637.70;103713;279;38488;-71
2023/03/12 07:50:47;;;;;;;4.00;2.30;;;;;;;5.99;64.15;99634.16;103701;279;38238;-74
2023/03/12 07:53:21;;;;;;;4.00;1.90;;;;;;;5.88;64.79;99635.83;103728;279;38208;-73
2023/03/12 07:55:56;;;;;;;2.90;2.20;;;;;;;6.32;64.81;99642.11;103672;279;39403;-74
2023/03/12 07:58:30;;;;;;;6.40;2.30;;;;;;;6.34;62.09;99645.84;103668;279;38245;-74
2023/03/12 08:01:05;;;;;;;6.50;2.70;;;;;;;6.04;60.68;99651.30;103717;279;38388;-73
2023/03/12 08:03:41;;;;;;;3.80;2.60;;;;;;;5.69;60.70;99654.58;103723;279;38265;-73
2023/03/12 08:06:15;;;;;;;4.80;3.00;;;;;;;5.41;61.23;99655.73;103749;279;38510;-73
2023/03/12 08:08:50;;;;;;;3.70;2.00;;;;;;;5.20;60.99;99658.40;103769;279;38340;-73
2023/03/12 08:11:27;;;;;;;3.50;1.70;;;;;;;4.91;60.22;99665.05;103750;279;38225;-73
2023/03/12 08:14:01;;;;;;;5.00;1.80;;;;;;;4.74;60.91;99662.59;103708;279;38598;-73
2023/03/12 08:16:38;;;;;;;2.00;1.30;;;;;;;4.56;60.92;99660.76;103603;280;38578;-73
2023/03/12 08:19:12;;;;;;;4.40;1.80;;;;;;;4.38;60.54;99667.61;103756;279;38372;-73
2023/03/12 08:21:47;;;;;;;3.20;2.20;;;;;;;4.16;60.71;99674.70;103721;279;39470;-74
2023/03/12 08:24:21;;;;;;;2.30;1.50;;;;;;;3.92;60.68;99673.14;103678;279;38461;-72
2023/03/12 08:26:55;;;;;;;2.70;1.70;;;;;;;3.74;61.20;99690.29;103725;279;38284;-74
2023/03/12 08:29:29;;;;;;;4.10;1.80;;;;;;;3.60;60.89;99695.73;103707;279;38287;-72
2023/03/12 08:32:03;;;;;;;5.60;1.60;;;;;;;3.67;61.39;99690.79;103731;279;38275;-74
2023/03/12 08:34:37;;;;;;;4.20;1.50;;;;;;;3.84;61.75;99697.66;103724;279;38264;-74
2023/03/12 08:37:15;;;;;;;2.70;1.40;;;;;;;4.34;62.06;99698.61;103584;279;39806;-74
2023/03/12 08:39:49;;;;;;;4.80;1.60;;;;;;;4.53;61.27;99697.97;103635;268;38334;-74
2023/03/12 08:42:24;;;;;;;3.20;1.70;;;;;;;4.73;60.80;99697.66;103538;280;38422;-73
2023/03/12 08:45:00;;;;;;;2.00;1.50;;;;;;;5.48;60.21;99699.64;103722;279;38266;-74
2023/03/12 08:47:34;;;;;;;2.50;1.50;;;;;;;5.66;58.74;99708.15;103730;279;38404;-75
2023/03/12 08:50:14;;;;;;;3.10;1.90;;;;;;;5.66;57.32;99707.45;103709;279;38390;-73
2023/03/12 08:52:49;;;;;;;4.10;2.00;;;;;;;6.00;58.76;99710.11;103695;279;38399;-76
2023/03/12 08:55:23;;;;;;;3.30;1.70;;;;;;;7.05;56.46;99704.16;103756;279;38423;-75
2023/03/12 08:57:57;;;;;;;3.20;1.50;;;;;;;7.17;53.51;99711.89;103765;279;38490;-74
2023/03/12 09:00:31;;;;;;;2.50;1.10;;;;;;;7.00;52.54;99714.22;103714;279;39428;-74
2023/03/12 09:03:05;;;;;;;3.30;2.10;;;;;;;6.93;52.32;99723.63;103683;279;39860;-74
2023/03/12 09:05:39;;;;;;;1.90;1.00;;;;;;;7.38;53.00;99722.96;103705;279;38302;-72
2023/03/12 09:08:13;;;;;;;4.10;1.20;;;;;;;7.45;50.65;99724.98;103699;279;38528;-70
2023/03/12 09:10:52;;;;;;;3.60;1.30;;;;;;;7.29;49.45;99725.52;103709;279;39414;-75
2023/03/12 09:13:26;;;;;;;2.60;1.30;;;;;;;7.00;50.33;99726.35;103700;280;38821;-74
2023/03/12 09:16:04;;;;;;;3.50;1.40;;;;;;;6.69;48.80;99729.13;103674;279;38375;-73
2023/03/12 09:18:38;;;;;;;2.50;1.50;;;;;;;6.29;50.36;99727.44;103574;279;175584;-72
2023/03/12 09:21:12;;;;;;;2.90;1.40;;;;;;;6.00;50.23;99732.79;103694;279;39265;-74
2023/03/12 09:23:47;;;;;;;4.10;1.80;;;;;;;5.83;51.74;99734.84;103540;279;175526;-74
2023/03/12 09:26:22;;;;;;;3.30;2.00;;;;;;;5.87;51.94;99727.63;103694;279;38244;-73
2023/03/12 09:28:57;;;;;;;4.60;1.60;;;;;;;6.19;50.80;99730.50;103725;279;38280;-75
2023/03/12 09:31:32;;;;;;;3.20;1.50;;;;;;;6.23;51.34;99730.05;103672;279;38729;-74
2023/03/12 09:34:06;;;;;;;3.30;1.30;;;;;;;6.87;50.55;99729.04;103745;279;39659;-75
2023/03/12 09:36:41;;;;;;;4.30;1.60;;;;;;;7.36;50.97;99727.36;103720;279;39453;-74
2023/03/12 09:39:15;;;;;;;4.50;1.60;;;;;;;7.59;48.23;99733.48;103795;279;38292;-72
2023/03/12 09:41:49;;;;;;;3.50;1.50;;;;;;;7.54;47.96;99736.95;103736;279;39581;-75
2023/03/12 09:44:28;;;;;;;4.50;2.00;;;;;;;7.48;47.38;99748.29;103667;279;38719;-74
2023/03/12 09:47:04;;;;;;;3.10;1.60;;;;;;;7.25;47.76;99744.93;103711;279;38237;-74
2023/03/12 09:49:42;;;;;;;3.20;1.40;;;;;;;7.02;46.95;99741.55;103716;279;38881;-74
2023/03/12 09:52:22;;;;;;;3.70;1.30;;;;;;;6.76;47.35;99754.36;103754;279;39573;-74
2023/03/12 09:55:01;;;;;;;3.50;1.60;;;;;;;6.46;47.17;99754.11;103783;279;38275;-73
2023/03/12 09:57:36;;;;;;;2.80;1.70;;;;;;;6.16;47.39;99754.51;103718;279;38272;-73
2023/03/12 10:00:16;;;;;;;4.80;2.00;;;;;;;5.95;47.40;99755.27;103592;279;39097;-73
2023/03/12 10:03:07;;;;;;;3.90;1.70;;;;;;;5.68;47.85;99768.14;103771;279;39660;-73
2023/03/12 10:05:44;;;;;;;3.80;1.70;;;;;;;5.43;48.04;99771.23;103725;279;39565;-74
2023/03/12 10:08:23;;;;;;;2.60;1.40;;;;;;;5.27;48.67;99767.85;103588;279;38746;-73
2023/03/12 10:10:59;;;;;;;4.40;1.50;;;;;;;5.22;48.62;99772.48;103712;279;40321;-70
2023/03/12 10:13:56;;;;;;;4.10;1.40;;;;;;;5.13;48.58;99774.27;103736;267;39719;-73
2023/03/12 10:16:49;;;;;;;4.00;1.60;;;;;;;4.99;48.64;99782.91;103692;279;38264;-74
2023/03/12 10:19:41;;;;;;;4.50;1.60;;;;;;;4.95;49.23;99781.96;103711;279;38287;-72
2023/03/12 10:22:24;;;;;;;2.70;1.50;;;;;;;4.90;49.68;99784.16;103722;279;38841;-73
2023/03/12 10:25:04;;;;;;;3.10;1.60;;;;;;;4.87;50.07;99786.33;103679;279;39682;-74
2023/03/12 10:27:41;;;;;;;3.20;2.00;;;;;;;4.75;49.81;99795.58;103700;279;39131;-74
2023/03/12 10:30:22;;;;;;;3.70;1.70;;;;;;;4.58;49.62;99791.83;103665;279;38991;-73
2023/03/12 10:32:58;;;;;;;4.80;1.70;;;;;;;4.49;49.81;99790.14;103742;279;38700;-73
2023/03/12 10:35:33;;;;;;;5.60;2.10;;;;;;;4.47;49.86;99794.50;103697;279;38660;-72
2023/03/12 10:38:09;;;;;;;5.50;1.90;;;;;;;4.53;50.04;99786.77;103719;279;39905;-74
2023/03/12 10:40:44;;;;;;;3.50;2.10;;;;;;;4.68;50.54;99784.00;103715;279;39673;-72
2023/03/12 10:43:20;;;;;;;3.40;1.80;;;;;;;4.96;50.90;99786.80;103715;279;39303;-74
2023/03/12 10:46:03;;;;;;;5.40;2.20;;;;;;;5.18;50.62;99792.64;103716;279;38306;-74
2023/03/12 10:48:38;;;;;;;3.40;2.00;;;;;;;5.29;50.42;99796.88;103700;279;38552;-75
2023/03/12 10:51:12;;;;;;;6.00;1.90;;;;;;;5.31;49.85;99802.86;103657;279;38573;-74
2023/03/12 10:53:54;;;;;;;5.60;1.90;;;;;;;5.33;50.38;99801.93;103675;279;38460;-73
2023/03/12 10:56:29;;;;;;;5.00;1.80;;;;;;;5.37;50.05;99808.23;103624;279;38296;-73
2023/03/12 10:59:03;;;;;;;2.70;1.40;;;;;;;5.27;49.66;99804.19;103753;279;38273;-74
2023/03/12 11:01:54;;;;;;;2.10;1.10;;;;;;;5.21;49.55;99811.75;103750;279;38265;-74
2023/03/12 11:04:29;;;;;;;3.10;1.20;;;;;;;5.45;51.01;99803.20;103746;279;38677;-74
2023/03/12 11:07:28;;;;;;;4.10;1.60;;;;;;;5.67;50.60;99804.84;103774;279;38373;-75
2023/03/12 11:10:18;;;;;;;4.20;1.40;;;;;;;5.91;49.88;99804.02;103695;279;38322;-73
2023/03/12 11:13:04;;;;;;;2.80;1.60;;;;;;;6.08;48.98;99803.40;103761;279;39712;-73
2023/03/12 11:15:44;;;;;;;2.00;1.10;;;;;;;6.26;49.35;99802.52;103103;279;911946;-74
2023/03/12 11:18:28;;;;;;;3.90;1.40;;;;;;;6.43;48.23;99814.65;103739;279;38382;-74
2023/03/12 11:21:17;;;;;;;3.30;1.50;;;;;;;6.55;47.85;99809.80;103740;279;38298;-73
2023/03/12 11:24:07;;;;;;;;;;;;;;;6.63;47.36;99807.65;103760;279;38414;-73
2023/03/12 11:26:55;;;;;;;3.00;1.60;;;;;;;6.62;46.82;99804.03;103737;279;38354;-74
2023/03/12 11:29:31;;;;;;;3.70;1.70;;;;;;;6.57;45.65;99807.48;103615;279;39552;-74
2023/03/12 11:32:15;;;;;;;4.10;1.90;;;;;;;6.53;45.58;99812.09;103733;279;38253;-75
2023/03/12 11:34:49;;;;;;;3.30;2.10;;;;;;;6.54;45.33;99813.81;103739;279;38277;-71
2023/03/12 11:37:30;;;;;;;4.30;2.50;;;;;;;6.54;45.14;99817.45;103747;279;39537;-72
2023/03/12 11:40:16;;;;;;;7.00;2.20;;;;;;;6.48;45.09;99820.41;103760;279;40017;-71
2023/03/12 11:43:01;;;;;;;3.90;2.10;;;;;;;6.43;45.56;99822.80;103756;279;39330;-71
2023/03/12 11:45:43;;;;;;;2.90;1.40;;;;;;;6.35;44.77;99826.15;103741;279;38246;-74
2023/03/12 11:48:23;;;;;;;4.30;2.00;;;;;;;6.24;44.85;99821.13;103759;279;38256;-70
2023/03/12 11:51:10;;;;;;;2.70;1.20;;;;;;;6.13;43.92;99825.24;103761;279;38314;-72
2023/03/12 11:53:58;;;;;;;3.40;1.60;;;;;;;6.06;44.45;99822.84;103713;279;38979;-73
2023/03/12 11:56:36;;;;;;;3.40;1.50;;;;;;;6.03;44.11;99820.17;103643;280;38360;-74
2023/03/12 11:59:34;;;;;;;4.00;1.60;;;;;;;6.07;44.82;99823.85;103783;279;38447;-73
2023/03/12 12:02:24;;;;;;;3.80;1.40;;;;;;;6.20;45.12;99811.87;103739;279;38230;-71
2023/03/12 12:05:10;;;;;;;2.00;1.00;;;;;;;6.37;45.09;99820.55;103720;279;38588;-72
2023/03/12 12:07:52;;;;;;;3.50;1.40;;;;;;;6.49;44.48;99826.61;103699;279;38284;-72
2023/03/12 12:10:35;;;;;;;3.00;1.50;;;;;;;6.55;43.78;99830.23;103594;279;40355;-73
2023/03/12 12:13:18;;;;;;;3.00;1.50;;;;;;;6.63;43.65;99825.33;103654;279;38454;-73
2023/03/12 12:16:07;;;;;;;3.80;2.00;;;;;;;6.68;43.42;99829.67;103668;279;38352;-70
2023/03/12 12:18:55;;;;;;;3.00;1.70;;;;;;;6.66;42.63;99829.38;103751;279;38292;-73